This is the latest recevied weather packets stored in our database for station/object KF5JED-13. If no packets are shown the sender has not sent any weather packets the latest 1 day(s).
| Time | Temp. | Humidity | Pressure | Rain* | Wind** | Luminosity | Snow |
|---|---|---|---|---|---|---|---|
| 1836274790 | 17.78° C | 74% | 1018.7 hPa | 0 mm | 1.34 m/s, 180° | 0 W/m² | - |
| 1836274489 | 17.78° C | 74% | 1018.8 hPa | 0 mm | 1.79 m/s, 164° | 0 W/m² | - |
| 1836274342 | 17.78° C | 73% | 1018.7 hPa | 0 mm | 1.79 m/s, 160° | 0 W/m² | - |
| 1836274186 | 17.22° C | 75% | 1018.8 hPa | 0 mm | 1.79 m/s, 173° | 0 W/m² | - |
| 1836273880 | 17.78° C | 74% | 1018.7 hPa | 0 mm | 1.79 m/s, 174° | 0 W/m² | - |
| 1778044416 | 7.22° C | 73% | 1011.9 hPa | 0 mm | 3.58 m/s, 82° | 0 W/m² | - |
| 1778044114 | 7.78° C | 73% | 1011.7 hPa | 0 mm | 3.13 m/s, 84° | 0 W/m² | - |
| 1778043811 | 7.78° C | 72% | 1011.5 hPa | 0 mm | 4.92 m/s, 84° | 0 W/m² | - |
| 1778043508 | 7.78° C | 72% | 1011.8 hPa | 0 mm | 4.02 m/s, 94° | 0 W/m² | - |
| 1778043205 | 7.78° C | 71% | 1012 hPa | 0 mm | 4.47 m/s, 88° | 0 W/m² | - |
| 1778042902 | 7.78° C | 71% | 1011.8 hPa | 0 mm | 4.92 m/s, 83° | 0 W/m² | - |
| 1778042600 | 8.33° C | 70% | 1011.7 hPa | 0 mm | 5.81 m/s, 87° | 0 W/m² | - |
| 1778042296 | 8.33° C | 69% | 1011.7 hPa | 0 mm | 4.02 m/s, 87° | 0 W/m² | - |
| 1778041994 | 8.33° C | 68% | 1011.7 hPa | 0 mm | 4.02 m/s, 78° | 0 W/m² | - |
| 1778041692 | 8.33° C | 67% | 1011.8 hPa | 0 mm | 4.02 m/s, 79° | 0 W/m² | - |
| 1778041391 | 8.89° C | 66% | 1011.6 hPa | 0 mm | 3.58 m/s, 95° | 0 W/m² | - |
| 1778041089 | 8.89° C | 66% | 1011.6 hPa | 0 mm | 4.47 m/s, 74° | 0 W/m² | - |
| 1778040785 | 9.44° C | 65% | 1011.7 hPa | 0 mm | 5.36 m/s, 87° | 0 W/m² | - |
| 1778040483 | 9.44° C | 65% | 1011.6 hPa | 0 mm | 3.58 m/s, 88° | 0 W/m² | - |
| 1778040180 | 9.44° C | 64% | 1011.7 hPa | 0 mm | 4.02 m/s, 82° | 0 W/m² | - |
| 1778039876 | 9.44° C | 64% | 1011.7 hPa | 0 mm | 4.47 m/s, 92° | 0 W/m² | - |
| 1778039573 | 9.44° C | 63% | 1011.7 hPa | 0 mm | 4.02 m/s, 95° | 0 W/m² | - |
| 1778039270 | 9.44° C | 63% | 1011.6 hPa | 0 mm | 4.02 m/s, 87° | 0 W/m² | - |
| 1778038968 | 10° C | 62% | 1011.6 hPa | 0 mm | 6.26 m/s, 89° | 0 W/m² | - |
| 1778038664 | 10° C | 62% | 1011.5 hPa | 0 mm | 5.36 m/s, 95° | 0 W/m² | - |
* Rain latest hour (hover to see other rain measurements)
** Current wind speed in m/s (hover to see current wind gust speed)